createdAt,value
2022-11-22T00:00:17.320Z,973.71
2022-11-22T00:05:17.218Z,973.62
2022-11-22T00:10:17.136Z,973.53
2022-11-22T00:15:17.107Z,973.54
2022-11-22T00:20:17.066Z,973.65
2022-11-22T00:25:17.074Z,973.55
2022-11-22T05:00:26.512Z,975.04
2022-11-22T05:05:26.498Z,975.07
2022-11-22T05:10:27.320Z,975.03
2022-11-22T05:15:33.390Z,975.11
2022-11-22T05:20:26.317Z,975.10
2022-11-22T05:25:26.213Z,975.16
2022-11-22T05:30:26.178Z,975.19
2022-11-22T05:35:26.123Z,975.20
2022-11-22T05:40:26.073Z,975.28
2022-11-22T05:45:26.000Z,975.33
2022-11-22T05:50:25.953Z,975.38
2022-11-22T05:55:25.916Z,975.45
2022-11-22T06:00:25.859Z,975.49
2022-11-22T06:05:25.777Z,975.53
2022-11-22T06:10:25.753Z,975.55
2022-11-22T06:15:25.698Z,975.61
2022-11-22T06:20:25.679Z,975.77
2022-11-22T06:25:25.568Z,975.74
2022-11-22T06:30:25.536Z,975.71
2022-11-22T06:35:25.489Z,975.66
2022-11-22T06:40:25.422Z,975.67
2022-11-22T06:45:25.366Z,975.65
2022-11-22T06:50:25.326Z,975.68
2022-11-22T06:55:49.236Z,975.78
2022-11-22T07:00:26.208Z,975.85
2022-11-22T07:05:26.287Z,975.93
2022-11-22T07:10:25.099Z,975.88
2022-11-22T07:15:25.067Z,975.82
2022-11-22T07:20:24.994Z,975.91
2022-11-22T07:25:24.937Z,975.95
2022-11-22T07:30:24.878Z,976.01
2022-11-22T07:35:24.862Z,976.03
2022-11-22T07:40:24.775Z,976.16
2022-11-22T07:45:24.731Z,976.18
2022-11-22T07:50:24.660Z,976.10
2022-11-22T07:55:24.730Z,976.06
2022-11-22T08:00:24.914Z,975.98
2022-11-22T08:05:24.501Z,976.01
2022-11-22T08:10:24.457Z,976.05
2022-11-22T08:15:24.514Z,976.04
2022-11-22T08:20:24.476Z,976.12
2022-11-22T08:25:24.293Z,976.19
2022-11-22T08:30:24.240Z,976.20
2022-11-22T08:35:24.304Z,976.30
2022-11-22T08:40:24.197Z,976.28
2022-11-22T08:45:24.080Z,976.33
2022-11-22T08:50:24.108Z,976.35
2022-11-22T08:55:24.098Z,976.33
2022-11-22T09:00:26.422Z,976.32
2022-11-22T09:05:23.939Z,976.20
2022-11-22T09:10:23.812Z,976.44
2022-11-22T09:15:23.946Z,976.44
2022-11-22T09:20:23.706Z,976.35
2022-11-22T09:25:23.647Z,976.33
2022-11-22T09:30:23.598Z,976.41
2022-11-22T09:35:23.664Z,976.36
2022-11-22T09:40:23.491Z,976.59
2022-11-22T09:45:23.437Z,976.47
2022-11-22T09:50:23.387Z,976.50
2022-11-22T09:55:24.309Z,976.48
2022-11-22T10:00:23.277Z,976.47
2022-11-22T10:05:23.223Z,976.47
2022-11-22T10:10:23.167Z,976.50
2022-11-22T10:15:23.225Z,976.44
2022-11-22T10:20:23.081Z,976.41
2022-11-22T10:25:23.007Z,976.24
2022-11-22T10:30:22.958Z,976.30
2022-11-22T10:35:23.015Z,976.19
2022-11-22T10:40:22.852Z,976.21
2022-11-22T10:45:22.798Z,976.08
2022-11-22T10:50:22.746Z,976.09
2022-11-22T10:55:22.813Z,976.04
2022-11-22T11:00:22.640Z,975.99
2022-11-22T11:05:22.585Z,976.02
2022-11-22T11:10:30.807Z,976.01
2022-11-22T11:15:23.601Z,975.92
2022-11-22T11:20:22.425Z,975.72
2022-11-22T11:25:22.376Z,975.69
2022-11-22T11:30:22.318Z,975.69
2022-11-22T11:35:22.389Z,975.59
2022-11-22T11:40:22.215Z,975.76
2022-11-22T11:45:22.177Z,975.73
2022-11-22T11:50:24.417Z,975.75
2022-11-22T11:55:22.271Z,975.71
2022-11-22T12:00:21.999Z,975.55
2022-11-22T12:05:21.946Z,975.61
2022-11-22T12:10:21.893Z,975.55
2022-11-22T12:15:21.962Z,975.64
2022-11-22T12:20:21.786Z,975.62
2022-11-22T12:25:32.537Z,975.68
2022-11-22T12:30:22.680Z,975.69
2022-11-22T12:35:21.743Z,975.64
2022-11-22T12:40:21.574Z,975.66
2022-11-22T12:45:21.524Z,975.71
2022-11-22T12:50:21.480Z,975.75
2022-11-22T12:55:21.531Z,975.73
2022-11-22T13:00:21.359Z,975.67
2022-11-22T13:05:21.313Z,975.62
2022-11-22T13:10:21.247Z,975.71
2022-11-22T13:15:21.321Z,975.62
2022-11-22T13:20:21.150Z,975.74
2022-11-22T13:25:21.101Z,975.72
2022-11-22T13:30:21.046Z,975.67
2022-11-22T13:35:21.115Z,975.62
2022-11-22T13:40:20.937Z,975.68
2022-11-22T13:45:20.988Z,975.62
2022-11-22T13:50:20.826Z,975.57
2022-11-22T13:55:20.893Z,975.59
2022-11-22T14:00:20.724Z,975.57
2022-11-22T14:05:20.671Z,975.61
2022-11-22T14:10:20.614Z,975.63
2022-11-22T14:15:20.680Z,975.58
2022-11-22T14:20:20.511Z,975.64
2022-11-22T14:25:20.457Z,975.60
2022-11-22T14:30:20.412Z,975.67
2022-11-22T14:35:23.600Z,975.62
2022-11-22T14:40:21.300Z,975.64
2022-11-22T14:45:23.102Z,975.53
2022-11-22T14:50:20.192Z,975.49
2022-11-22T14:55:20.266Z,975.51
2022-11-22T15:00:20.088Z,975.50
2022-11-22T15:09:23.219Z,975.57
2022-11-22T15:10:20.026Z,975.58
2022-11-22T16:00:20.449Z,976.01
2022-11-22T16:06:08.488Z,976.05
2022-11-22T16:10:20.338Z,975.96
2022-11-22T16:15:19.410Z,975.94
2022-11-22T16:20:19.234Z,976.05
2022-11-22T16:25:19.175Z,976.12
2022-11-22T16:30:23.444Z,976.11
2022-11-22T16:35:29.358Z,976.17
2022-11-22T16:40:20.028Z,976.21
2022-11-22T16:45:19.022Z,976.31
2022-11-22T16:50:18.909Z,976.33
2022-11-22T16:55:18.975Z,976.32
2022-11-22T17:00:18.803Z,976.41
2022-11-22T17:05:18.743Z,976.53
2022-11-22T17:10:18.693Z,976.60
2022-11-22T17:15:18.757Z,976.56
2022-11-22T17:20:25.623Z,976.62
2022-11-22T17:25:18.531Z,976.66
2022-11-22T17:30:18.483Z,976.73
2022-11-22T17:35:18.542Z,976.73
2022-11-22T17:40:18.369Z,976.87
2022-11-22T17:45:18.319Z,976.94
2022-11-22T17:50:18.264Z,977.04
2022-11-22T17:55:18.337Z,977.04
2022-11-22T18:00:18.157Z,977.13
2022-11-22T18:05:18.100Z,977.14
2022-11-22T18:10:18.044Z,977.30
2022-11-22T18:15:18.114Z,977.30
2022-11-22T18:20:17.941Z,977.33
2022-11-22T18:25:17.886Z,977.23
2022-11-22T18:30:17.828Z,977.18
2022-11-22T18:35:17.894Z,977.32
2022-11-22T18:40:17.721Z,977.30
2022-11-22T18:45:17.670Z,977.27
2022-11-22T18:50:17.616Z,977.32
2022-11-22T18:55:17.696Z,977.24
2022-11-22T19:00:17.519Z,977.11
2022-11-22T19:05:19.901Z,977.19
2022-11-22T19:10:18.403Z,977.24
2022-11-22T19:15:17.482Z,977.32
2022-11-22T19:20:47.323Z,977.36
2022-11-22T19:25:18.245Z,977.28
2022-11-22T19:30:17.203Z,977.20
2022-11-22T19:35:17.262Z,977.32
2022-11-22T19:40:17.090Z,977.29
2022-11-22T19:45:17.029Z,977.32
2022-11-22T19:50:16.974Z,977.32
2022-11-22T19:55:17.039Z,977.27
2022-11-22T20:00:16.868Z,977.34
2022-11-22T20:05:16.825Z,977.36
2022-11-22T20:10:16.749Z,977.44
2022-11-22T20:15:16.831Z,977.40
2022-11-22T20:20:16.857Z,977.40
2022-11-22T20:25:16.590Z,977.50
2022-11-22T20:30:16.550Z,977.50
2022-11-22T20:35:16.643Z,977.57
2022-11-22T20:40:16.426Z,977.54
2022-11-22T20:45:16.400Z,977.58
2022-11-22T20:50:16.342Z,977.54
2022-11-22T20:55:16.389Z,977.55
2022-11-22T21:00:16.235Z,977.61
2022-11-22T21:05:16.173Z,977.60
2022-11-22T21:10:16.105Z,977.61
2022-11-22T21:15:16.186Z,977.68
2022-11-22T21:20:16.011Z,977.59
2022-11-22T21:25:15.960Z,977.73
2022-11-22T21:30:15.890Z,977.74
2022-11-22T21:35:15.973Z,977.70
2022-11-22T21:40:15.795Z,977.80
2022-11-22T21:45:15.732Z,977.79
2022-11-22T21:50:15.697Z,977.81
2022-11-22T21:55:15.651Z,977.89
2022-11-22T22:00:15.582Z,977.85
2022-11-22T22:05:15.529Z,977.93
2022-11-22T22:10:15.473Z,977.85
2022-11-22T22:15:15.535Z,977.91
2022-11-22T22:20:15.497Z,977.83
2022-11-22T22:25:15.314Z,977.91
2022-11-22T22:30:15.264Z,977.85
2022-11-22T22:35:15.325Z,977.82
2022-11-22T22:40:15.152Z,977.91
2022-11-22T22:45:15.101Z,977.86
2022-11-22T22:50:15.047Z,977.94
2022-11-22T22:55:15.118Z,977.98
2022-11-22T23:00:14.939Z,978.03
2022-11-22T23:05:14.883Z,978.01
2022-11-22T23:10:14.831Z,978.02
2022-11-22T23:15:14.887Z,978.10
2022-11-22T23:20:21.758Z,978.07
2022-11-22T23:25:14.673Z,978.16
2022-11-22T23:30:14.802Z,978.19
2022-11-22T23:35:14.574Z,978.19
2022-11-22T23:40:14.508Z,978.30
2022-11-22T23:45:14.453Z,978.23
2022-11-22T23:50:14.399Z,978.24
2022-11-22T23:55:14.471Z,978.30
